Time;durP1;ratioP1;P1;durP2;ratioP2;P2;SDS_P1;SDS_P2;PMS_P1;PMS_P2;Temp;Humidity;BMP_temperature;BMP_pressure;BME280_temperature;BME280_humidity;BME280_pressure;Samples;Min_cycle;Max_cycle;Signal;HPM_P1;HPM_P2
2021/08/31 00:00:30;;;;;;;54.53;50.10;;;;;;;12.70;100.00;100973.53;5074975;28;20114;-77
2021/08/31 00:02:56;;;;;;;49.70;45.10;;;;;;;12.53;100.00;100972.44;5074706;28;20067;-76
2021/08/31 00:05:23;;;;;;;57.30;52.40;;;;;;;12.35;100.00;100973.94;5075169;28;20048;-77
2021/08/31 00:07:50;;;;;;;54.58;49.90;;;;;;;12.17;100.00;100970.31;5075133;28;20462;-77
2021/08/31 00:10:17;;;;;;;57.15;52.25;;;;;;;12.44;100.00;100976.38;5075139;28;20048;-76
2021/08/31 00:12:44;;;;;;;55.28;50.67;;;;;;;12.54;100.00;100990.03;5075012;28;20114;-77
2021/08/31 00:15:12;;;;;;;51.63;47.13;;;;;;;12.28;100.00;100977.63;5074665;28;20113;-77
2021/08/31 00:17:40;;;;;;;50.25;45.85;;;;;;;12.67;100.00;100987.28;5074521;28;20052;-76
2021/08/31 00:20:09;;;;;;;49.00;44.60;;;;;;;12.10;100.00;100986.28;5074722;28;20053;-76
2021/08/31 00:22:36;;;;;;;53.05;48.55;;;;;;;12.46;100.00;100982.28;5074862;28;20114;-76
2021/08/31 00:25:03;;;;;;;52.42;48.22;;;;;;;12.66;100.00;100990.19;5074941;28;20464;-77
2021/08/31 00:27:30;;;;;;;53.20;48.80;;;;;;;12.48;100.00;100990.88;5074467;28;20526;-77
2021/08/31 00:29:57;;;;;;;52.67;48.03;;;;;;;12.46;100.00;100987.59;5074416;28;20459;-77
2021/08/31 00:32:24;;;;;;;49.63;45.22;;;;;;;12.18;100.00;100971.94;5074390;28;20048;-79
2021/08/31 00:34:52;;;;;;;51.55;47.25;;;;;;;12.20;100.00;100981.38;5074719;28;20064;-77
2021/08/31 00:37:19;;;;;;;49.13;44.78;;;;;;;11.99;100.00;100981.63;5074325;28;20170;-77
2021/08/31 00:39:45;;;;;;;51.75;47.05;;;;;;;12.20;100.00;100984.03;5074152;28;20044;-77
2021/08/31 00:42:12;;;;;;;49.85;45.55;;;;;;;12.12;100.00;100990.38;5073942;28;20052;-77
2021/08/31 00:44:39;;;;;;;47.85;43.70;;;;;;;11.95;100.00;100991.03;5074279;28;20048;-77
2021/08/31 00:47:06;;;;;;;48.60;44.40;;;;;;;12.15;100.00;100984.63;5074440;28;20048;-78
2021/08/31 00:49:33;;;;;;;53.42;48.63;;;;;;;12.25;100.00;100984.19;5074343;28;20060;-76
2021/08/31 00:52:02;;;;;;;51.13;46.83;;;;;;;12.20;100.00;100986.69;5074309;28;20064;-77
2021/08/31 00:54:30;;;;;;;52.22;47.88;;;;;;;11.91;100.00;100993.31;5073981;28;20102;-77
2021/08/31 00:56:59;;;;;;;55.75;51.15;;;;;;;11.88;100.00;100989.22;5074105;28;20053;-77
2021/08/31 00:59:26;;;;;;;49.85;45.38;;;;;;;11.93;100.00;101001.09;5073800;28;20055;-77
2021/08/31 01:01:54;;;;;;;54.92;49.72;;;;;;;11.84;100.00;100995.94;5073559;28;20114;-77
2021/08/31 01:04:21;;;;;;;50.75;46.13;;;;;;;12.23;100.00;101002.25;5073717;28;20496;-77
2021/08/31 01:06:50;;;;;;;53.22;48.63;;;;;;;12.22;100.00;101002.44;5074084;28;20447;-77
2021/08/31 01:09:19;;;;;;;54.42;49.55;;;;;;;12.11;100.00;101006.59;5074119;28;20048;-77
2021/08/31 01:11:47;;;;;;;48.97;44.47;;;;;;;12.26;100.00;101014.34;5073632;28;20474;-77
2021/08/31 01:14:14;;;;;;;48.60;44.25;;;;;;;12.17;100.00;101011.06;5073893;28;20117;-78
2021/08/31 01:16:41;;;;;;;53.00;48.30;;;;;;;12.27;100.00;101013.28;5073973;28;20482;-78
2021/08/31 01:19:08;;;;;;;53.40;48.53;;;;;;;12.34;100.00;101006.09;5073374;28;20457;-78
2021/08/31 01:21:35;;;;;;;52.90;48.20;;;;;;;11.99;100.00;101013.56;5073844;28;20056;-77
2021/08/31 01:24:02;;;;;;;54.40;49.45;;;;;;;12.24;100.00;101011.03;5073433;28;20048;-77
2021/08/31 01:26:30;;;;;;;56.80;51.85;;;;;;;12.14;100.00;101014.16;5073466;28;20044;-78
2021/08/31 01:29:00;;;;;;;58.17;53.08;;;;;;;11.98;100.00;101010.09;5073542;28;20401;-77
2021/08/31 01:31:27;;;;;;;60.97;55.90;;;;;;;12.34;100.00;101009.59;5073620;28;20049;-77
2021/08/31 01:33:55;;;;;;;63.85;58.53;;;;;;;12.12;100.00;101013.53;5073366;28;20497;-77
2021/08/31 01:36:25;;;;;;;48.03;43.72;;;;;;;11.62;100.00;101021.16;5073620;28;20091;-77
2021/08/31 01:38:53;;;;;;;57.85;52.95;;;;;;;12.17;100.00;101011.06;5073260;28;20048;-77
2021/08/31 01:41:21;;;;;;;54.03;49.33;;;;;;;11.80;100.00;101017.84;5073589;28;20114;-78
2021/08/31 01:43:49;;;;;;;54.08;49.17;;;;;;;12.10;100.00;101013.75;5073494;28;20086;-77
2021/08/31 01:46:16;;;;;;;50.20;45.80;;;;;;;12.17;100.00;101020.91;5073596;28;20045;-77
2021/08/31 01:48:43;;;;;;;57.30;52.30;;;;;;;12.09;100.00;101016.63;5073517;28;20049;-77
2021/08/31 01:51:10;;;;;;;58.58;53.70;;;;;;;12.23;100.00;101020.06;5073205;28;20113;-77
2021/08/31 01:53:38;;;;;;;48.40;44.20;;;;;;;11.76;100.00;101024.63;5073228;28;20093;-78
2021/08/31 01:56:05;;;;;;;57.38;52.53;;;;;;;11.76;100.00;101027.28;5076851;28;20056;-77
2021/08/31 01:58:33;;;;;;;56.70;52.03;;;;;;;11.98;100.00;101023.41;5077250;28;20455;-77
2021/08/31 02:01:01;;;;;;;62.20;57.00;;;;;;;11.96;100.00;101020.13;5151203;22;20052;-86
2021/08/31 02:03:28;;;;;;;56.70;51.65;;;;;;;11.53;100.00;101023.22;5076384;28;20136;-86
2021/08/31 02:05:55;;;;;;;61.78;56.65;;;;;;;11.70;100.00;101027.06;5076038;28;20057;-86
2021/08/31 02:08:22;;;;;;;63.28;57.65;;;;;;;11.38;100.00;101012.75;5075949;28;20052;-86
2021/08/31 02:10:48;;;;;;;61.03;55.90;;;;;;;11.73;100.00;101014.38;5076291;28;20048;-86
2021/08/31 02:13:15;;;;;;;58.67;53.50;;;;;;;11.58;100.00;101017.25;5076051;28;20059;-86
2021/08/31 02:15:42;;;;;;;61.25;56.05;;;;;;;11.49;100.00;101019.31;5075929;28;20052;-86
2021/08/31 02:18:10;;;;;;;61.65;56.55;;;;;;;11.56;100.00;101020.13;5076169;28;20056;-87
2021/08/31 02:20:37;;;;;;;68.45;62.90;;;;;;;11.36;100.00;101014.00;5075737;28;20516;-86
2021/08/31 02:23:05;;;;;;;65.57;60.05;;;;;;;11.64;100.00;101022.56;5076413;28;20075;-86
2021/08/31 02:25:32;;;;;;;66.50;61.15;;;;;;;11.45;100.00;101023.41;5075799;28;20049;-86
2021/08/31 02:27:58;;;;;;;61.20;56.30;;;;;;;11.54;100.00;101024.03;5075892;28;20049;-86
2021/08/31 02:30:25;;;;;;;71.28;65.30;;;;;;;11.47;100.00;101032.00;5075919;28;20083;-85
2021/08/31 02:32:52;;;;;;;68.18;62.75;;;;;;;11.44;100.00;101032.41;5075610;28;20052;-86
2021/08/31 02:35:21;;;;;;;64.85;59.33;;;;;;;11.40;100.00;101036.47;5075650;28;20067;-87
2021/08/31 02:37:48;;;;;;;65.57;59.97;;;;;;;11.22;100.00;101031.75;5075501;28;20421;-87
2021/08/31 02:40:15;;;;;;;64.90;59.60;;;;;;;11.46;100.00;101031.16;5075758;28;20436;-86
2021/08/31 02:42:42;;;;;;;71.22;65.40;;;;;;;11.32;100.00;101032.19;5075767;28;20045;-86
2021/08/31 02:45:10;;;;;;;71.32;65.75;;;;;;;11.56;100.00;101035.25;5075222;28;20501;-85
2021/08/31 02:47:37;;;;;;;62.17;57.08;;;;;;;11.37;100.00;101031.56;5075669;28;20052;-87
2021/08/31 02:50:05;;;;;;;75.28;69.68;;;;;;;11.50;100.00;101036.06;5075639;28;20049;-86
2021/08/31 02:52:33;;;;;;;64.10;59.20;;;;;;;10.97;100.00;101031.50;5075592;28;20109;-86
2021/08/31 02:55:00;;;;;;;71.50;65.85;;;;;;;11.48;100.00;101041.63;5075358;28;20044;-86
2021/08/31 02:57:27;;;;;;;63.67;58.20;;;;;;;11.10;100.00;101039.50;5075452;28;20048;-86
2021/08/31 02:59:54;;;;;;;60.65;55.42;;;;;;;10.98;100.00;101036.63;5075017;28;20052;-85
2021/08/31 03:02:20;;;;;;;61.42;56.03;;;;;;;11.15;100.00;101037.06;5074869;28;20055;-88
2021/08/31 03:04:47;;;;;;;58.50;53.50;;;;;;;11.14;100.00;101040.75;5074983;28;20519;-86
2021/08/31 03:07:15;;;;;;;60.30;55.40;;;;;;;11.33;100.00;101048.97;5075205;28;20048;-88
2021/08/31 03:09:43;;;;;;;57.97;53.05;;;;;;;11.21;100.00;101046.06;5074972;28;20057;-88
2021/08/31 03:12:11;;;;;;;53.17;48.60;;;;;;;11.07;100.00;101047.88;5075200;28;20040;-86
2021/08/31 03:14:38;;;;;;;65.85;60.35;;;;;;;11.40;100.00;101049.78;5075100;28;20056;-86
2021/08/31 03:17:05;;;;;;;55.67;50.58;;;;;;;10.90;100.00;101052.75;5075052;28;20121;-86
2021/08/31 03:19:32;;;;;;;74.63;68.82;;;;;;;11.16;100.00;101054.66;5074808;28;20052;-88
2021/08/31 03:22:01;;;;;;;63.90;58.78;;;;;;;11.41;100.00;101054.91;5074753;28;20496;-86
2021/08/31 03:24:28;;;;;;;58.60;53.80;;;;;;;11.60;100.00;101049.81;5074863;28;20048;-89
2021/08/31 03:26:57;;;;;;;50.85;46.25;;;;;;;11.24;100.00;101054.47;5074896;28;20052;-88
2021/08/31 03:29:23;;;;;;;55.78;50.88;;;;;;;10.98;100.00;101052.59;5074468;28;20049;-88
2021/08/31 03:31:50;;;;;;;56.47;51.65;;;;;;;11.17;100.00;101044.84;5074520;28;20045;-88
2021/08/31 03:34:17;;;;;;;53.25;48.88;;;;;;;11.14;100.00;101046.06;5074776;28;20052;-88
2021/08/31 03:36:45;;;;;;;56.70;51.90;;;;;;;10.98;100.00;101049.09;5074477;28;20056;-88
2021/08/31 03:39:12;;;;;;;58.00;53.20;;;;;;;11.09;100.00;101053.00;5074329;28;20041;-87
2021/08/31 03:41:38;;;;;;;56.35;51.75;;;;;;;11.07;100.00;101058.50;5074556;28;20049;-88
2021/08/31 03:44:07;;;;;;;48.83;44.60;;;;;;;10.50;100.00;101062.41;5074320;28;20049;-87
2021/08/31 03:46:34;;;;;;;54.22;49.63;;;;;;;11.04;100.00;101060.75;5074587;28;20045;-88
2021/08/31 03:49:01;;;;;;;54.55;50.25;;;;;;;11.19;100.00;101064.06;5074155;28;20106;-88
2021/08/31 03:51:28;;;;;;;54.90;50.63;;;;;;;10.95;100.00;101062.78;5074419;28;20433;-87
2021/08/31 03:53:54;;;;;;;55.95;51.58;;;;;;;11.08;100.00;101057.50;5074375;28;20468;-87
2021/08/31 03:56:21;;;;;;;54.88;50.25;;;;;;;10.89;100.00;101061.75;5074226;28;20060;-88
2021/08/31 03:58:48;;;;;;;52.60;48.33;;;;;;;10.96;100.00;101067.09;5073984;28;20048;-87
2021/08/31 04:01:16;;;;;;;54.22;49.85;;;;;;;11.17;100.00;101068.78;5073927;28;20048;-88
2021/08/31 04:03:43;;;;;;;53.15;48.83;;;;;;;11.19;100.00;101066.72;5074120;28;20044;-88
2021/08/31 04:06:10;;;;;;;64.10;59.20;;;;;;;11.41;100.00;101072.72;5074016;28;20512;-88
2021/08/31 04:08:37;;;;;;;57.47;53.03;;;;;;;11.48;100.00;101075.38;5074059;28;20048;-87
2021/08/31 04:11:04;;;;;;;57.33;52.97;;;;;;;11.76;100.00;101070.66;5073839;28;20063;-87
2021/08/31 04:13:31;;;;;;;64.13;59.00;;;;;;;11.76;100.00;101076.00;5074013;28;20055;-88
2021/08/31 04:15:58;;;;;;;69.80;64.05;;;;;;;11.59;100.00;101080.06;5073689;28;20052;-88
2021/08/31 04:18:26;;;;;;;71.72;66.07;;;;;;;11.99;100.00;101078.28;5073008;28;20056;-88
2021/08/31 04:20:53;;;;;;;69.63;63.92;;;;;;;11.98;100.00;101075.81;5073548;28;20052;-88
2021/08/31 04:23:20;;;;;;;63.40;58.38;;;;;;;12.07;100.00;101071.91;5073781;28;20055;-88
2021/08/31 04:25:47;;;;;;;64.22;59.33;;;;;;;12.38;100.00;101074.72;5073758;28;20424;-87
2021/08/31 04:28:13;;;;;;;63.05;58.35;;;;;;;12.69;100.00;101077.72;5073745;28;20055;-87
2021/08/31 04:30:40;;;;;;;68.32;63.17;;;;;;;12.65;100.00;101068.47;5073615;28;20452;-87
2021/08/31 04:33:07;;;;;;;73.90;68.50;;;;;;;12.75;100.00;101075.00;5073581;28;20471;-87
2021/08/31 04:35:35;;;;;;;69.15;63.72;;;;;;;12.78;100.00;101077.25;5073574;28;20048;-88
2021/08/31 04:38:02;;;;;;;65.10;60.17;;;;;;;12.87;100.00;101077.03;5073570;28;20048;-88
2021/08/31 04:40:29;;;;;;;65.68;60.35;;;;;;;12.66;100.00;101078.13;5072942;28;20048;-88
2021/08/31 04:42:56;;;;;;;65.88;60.78;;;;;;;12.73;100.00;101089.56;5073265;28;20054;-87
2021/08/31 04:45:23;;;;;;;63.15;58.08;;;;;;;13.12;100.00;101088.56;5073253;28;20516;-88
2021/08/31 04:47:49;;;;;;;56.65;52.55;;;;;;;13.36;100.00;101095.03;5073368;28;20060;-88
2021/08/31 04:50:16;;;;;;;63.67;58.90;;;;;;;13.59;100.00;101096.34;5073001;28;20540;-86
2021/08/31 04:52:46;;;;;;;58.45;54.20;;;;;;;13.74;100.00;101100.31;5073201;28;20056;-86
2021/08/31 04:55:12;;;;;;;59.45;55.10;;;;;;;13.80;100.00;101095.13;5073187;28;20139;-86
2021/08/31 04:57:39;;;;;;;59.50;55.45;;;;;;;13.92;100.00;101096.88;5072810;28;20044;-89
2021/08/31 05:00:08;;;;;;;60.85;56.60;;;;;;;14.16;100.00;101091.72;5072734;28;20048;-88
2021/08/31 05:02:36;;;;;;;58.67;54.15;;;;;;;14.34;100.00;101090.94;5072545;28;20559;-86
2021/08/31 05:05:03;;;;;;;56.60;52.22;;;;;;;14.47;100.00;101092.66;5072921;28;20054;-89
2021/08/31 05:07:30;;;;;;;58.55;54.10;;;;;;;14.60;100.00;101090.66;5072800;28;20107;-88
2021/08/31 05:09:58;;;;;;;64.88;60.58;;;;;;;14.77;100.00;101092.75;5072626;28;20048;-88
2021/08/31 05:12:25;;;;;;;57.30;53.05;;;;;;;14.84;100.00;101096.97;5072973;28;20407;-87
2021/08/31 05:14:52;;;;;;;57.63;53.85;;;;;;;14.86;100.00;101102.09;5072615;28;20047;-88
2021/08/31 05:17:18;;;;;;;64.25;59.40;;;;;;;14.91;100.00;101099.56;5072743;28;20048;-88
2021/08/31 05:19:45;;;;;;;61.90;57.08;;;;;;;14.95;100.00;101098.09;5072546;28;20040;-88
2021/08/31 05:22:12;;;;;;;59.60;55.03;;;;;;;15.25;100.00;101094.56;5072437;28;20044;-88
2021/08/31 05:24:39;;;;;;;68.93;63.80;;;;;;;15.42;100.00;101092.06;5072670;28;20056;-87
2021/08/31 05:27:08;;;;;;;74.32;68.47;;;;;;;15.69;100.00;101097.88;5072507;28;20057;-88
2021/08/31 05:29:35;;;;;;;72.47;67.07;;;;;;;15.95;100.00;101091.28;5071854;28;20109;-88
2021/08/31 05:32:02;;;;;;;55.00;50.80;;;;;;;16.26;100.00;101090.91;5072610;28;20102;-88
2021/08/31 05:34:29;;;;;;;50.70;47.63;;;;;;;16.37;100.00;101083.91;5072599;28;20056;-87
2021/08/31 05:36:55;;;;;;;44.67;41.60;;;;;;;16.42;100.00;101077.84;5072282;28;20048;-88
2021/08/31 05:39:22;;;;;;;51.33;48.08;;;;;;;16.75;100.00;101081.72;5072556;28;20483;-88
2021/08/31 05:41:49;;;;;;;49.65;46.75;;;;;;;17.06;100.00;101083.97;5072671;28;20421;-88
2021/08/31 05:44:17;;;;;;;40.45;38.33;;;;;;;17.46;100.00;101084.94;5072528;28;20049;-88
2021/08/31 05:46:44;;;;;;;41.08;39.08;;;;;;;17.75;100.00;101083.00;5072556;28;20071;-87
2021/08/31 05:49:11;;;;;;;40.50;38.40;;;;;;;17.96;100.00;101082.28;5072466;28;20071;-87
2021/08/31 05:51:37;;;;;;;34.45;32.75;;;;;;;18.16;100.00;101080.97;5072234;28;20048;-87
2021/08/31 05:54:04;;;;;;;31.90;30.30;;;;;;;18.07;100.00;101084.06;5072289;28;20420;-88
2021/08/31 05:56:31;;;;;;;35.97;34.28;;;;;;;18.39;100.00;101088.00;5072176;28;20044;-88
2021/08/31 05:58:58;;;;;;;37.63;35.83;;;;;;;18.32;100.00;101080.09;5072561;28;20484;-87
2021/08/31 06:01:26;;;;;;;33.83;32.10;;;;;;;18.24;100.00;101075.97;5071852;28;20049;-87
2021/08/31 06:03:53;;;;;;;34.20;32.40;;;;;;;18.49;100.00;101074.69;5072245;28;20051;-87
2021/08/31 06:06:20;;;;;;;30.42;28.50;;;;;;;18.46;100.00;101085.94;5072055;28;20048;-88
2021/08/31 06:08:46;;;;;;;34.70;32.70;;;;;;;18.66;100.00;101082.69;5072286;28;20045;-88
2021/08/31 06:11:17;;;;;;;33.92;32.03;;;;;;;18.72;100.00;101081.69;5071993;28;20053;-87
2021/08/31 06:13:44;;;;;;;34.80;33.08;;;;;;;18.70;100.00;101083.81;5072212;28;20063;-88
2021/08/31 06:16:10;;;;;;;31.35;29.63;;;;;;;18.90;100.00;101083.25;5072285;28;20055;-87
2021/08/31 06:18:39;;;;;;;33.72;31.92;;;;;;;18.99;100.00;101077.16;5072215;28;20044;-88
2021/08/31 06:21:05;;;;;;;33.03;31.33;;;;;;;19.02;100.00;101081.25;5071789;28;20051;-86
2021/08/31 06:23:32;;;;;;;32.47;30.65;;;;;;;18.87;100.00;101087.25;5072147;28;20102;-85
2021/08/31 06:25:59;;;;;;;33.55;31.52;;;;;;;19.06;100.00;101082.34;5071859;28;20059;-86
2021/08/31 06:28:26;;;;;;;34.45;32.38;;;;;;;19.34;100.00;101081.28;5072237;28;20448;-86
2021/08/31 06:30:53;;;;;;;32.88;31.08;;;;;;;19.14;100.00;101075.72;5072080;28;20083;-87
2021/08/31 06:33:20;;;;;;;31.33;29.58;;;;;;;19.33;100.00;101073.47;5072132;28;20052;-86
2021/08/31 06:35:48;;;;;;;34.78;32.88;;;;;;;19.70;100.00;101078.94;5072037;28;20045;-87
2021/08/31 06:38:15;;;;;;;30.77;29.02;;;;;;;20.29;100.00;101081.47;5072060;28;20060;-86
2021/08/31 06:40:42;;;;;;;33.88;32.28;;;;;;;19.97;100.00;101075.34;5072625;28;20048;-86
2021/08/31 06:43:09;;;;;;;32.05;30.42;;;;;;;19.79;100.00;101080.09;5075405;28;20059;-87
2021/08/31 06:45:36;;;;;;;32.28;29.50;;;;;;;19.70;100.00;101076.25;5075712;28;20049;-87
2021/08/31 06:48:02;;;;;;;30.50;28.90;;;;;;;20.27;100.00;101072.00;5075433;28;20501;-86
2021/08/31 06:50:29;;;;;;;30.50;28.77;;;;;;;20.24;100.00;101081.44;5075667;28;20052;-87
2021/08/31 06:52:58;;;;;;;33.20;31.50;;;;;;;20.29;100.00;101088.75;5075600;28;20044;-86
2021/08/31 06:55:25;;;;;;;28.05;26.45;;;;;;;20.21;100.00;101089.22;5075519;28;20071;-86
2021/08/31 06:57:51;;;;;;;28.58;26.88;;;;;;;20.20;100.00;101088.41;5075184;28;20048;-86
2021/08/31 07:03:40;;;;;;;25.98;24.25;;;;;;;20.83;100.00;101087.66;5065393;28;20055;-87
2021/08/31 07:06:07;;;;;;;26.15;24.55;;;;;;;20.95;100.00;101077.44;5075302;28;20048;-86
2021/08/31 07:08:35;;;;;;;26.15;24.50;;;;;;;21.22;100.00;101088.81;5075320;28;20479;-86
2021/08/31 07:11:02;;;;;;;25.48;23.77;;;;;;;21.67;100.00;101087.25;5075318;28;20425;-87
2021/08/31 07:13:28;;;;;;;25.05;23.35;;;;;;;21.32;100.00;101088.03;5074925;28;20049;-86
2021/08/31 07:15:55;;;;;;;26.35;24.48;;;;;;;21.09;100.00;101083.97;5074887;28;20052;-86
2021/08/31 07:18:22;;;;;;;26.38;24.75;;;;;;;21.65;100.00;101084.00;5074811;28;20049;-86
2021/08/31 07:20:49;;;;;;;25.20;23.55;;;;;;;21.95;100.00;101090.47;5074711;28;20051;-87
2021/08/31 07:23:16;;;;;;;25.95;24.45;;;;;;;21.61;100.00;101085.66;5075035;28;20052;-87
2021/08/31 07:25:46;;;;;;;26.63;25.33;;;;;;;22.01;100.00;101089.38;5074865;28;20053;-87
2021/08/31 07:28:13;;;;;;;25.58;24.17;;;;;;;22.07;100.00;101087.47;5074789;28;20058;-86
2021/08/31 07:30:40;;;;;;;25.05;23.65;;;;;;;22.17;100.00;101093.69;5074863;28;20044;-86
2021/08/31 07:33:08;;;;;;;25.92;24.45;;;;;;;21.80;100.00;101090.50;5074728;28;20517;-86
2021/08/31 07:35:35;;;;;;;28.83;27.23;;;;;;;22.33;100.00;101090.94;5074768;28;20057;-87
2021/08/31 07:38:03;;;;;;;26.23;24.83;;;;;;;22.61;100.00;101093.03;5074853;28;20106;-88
2021/08/31 07:40:30;;;;;;;27.30;25.90;;;;;;;22.60;100.00;101091.41;5074418;28;20044;-87
2021/08/31 07:42:59;;;;;;;25.38;23.50;;;;;;;22.55;100.00;101085.22;5074609;28;20402;-86
2021/08/31 07:45:25;;;;;;;27.08;24.98;;;;;;;22.42;100.00;101078.47;5074319;28;20044;-87
2021/08/31 07:47:52;;;;;;;26.30;24.63;;;;;;;22.30;100.00;101083.38;5074581;28;20048;-86
2021/08/31 07:50:19;;;;;;;24.48;22.92;;;;;;;22.55;100.00;101082.50;5074330;28;20067;-86
2021/08/31 07:52:47;;;;;;;24.38;22.88;;;;;;;22.48;100.00;101071.16;5073288;28;20570;-86
2021/08/31 07:55:15;;;;;;;25.70;24.00;;;;;;;22.23;100.00;101072.84;5074583;28;20048;-86
2021/08/31 07:57:42;;;;;;;27.48;25.67;;;;;;;22.71;100.00;101065.09;5074360;28;20048;-87
2021/08/31 08:00:14;;;;;;;28.20;26.45;;;;;;;22.98;100.00;101063.91;5073952;28;20048;-86
2021/08/31 08:02:40;;;;;;;24.95;23.20;;;;;;;22.27;96.62;101065.00;5074178;28;20424;-86
2021/08/31 08:05:09;;;;;;;25.88;24.27;;;;;;;22.66;100.00;101058.88;5074154;28;20045;-87
2021/08/31 08:07:36;;;;;;;28.30;26.50;;;;;;;23.07;100.00;101059.50;5073952;28;20498;-87
2021/08/31 08:10:04;;;;;;;29.52;27.58;;;;;;;23.21;96.83;101054.28;5074180;28;20053;-86
2021/08/31 08:12:30;;;;;;;28.25;26.55;;;;;;;22.92;96.86;101054.97;5074109;28;20055;-87
2021/08/31 08:14:58;;;;;;;28.02;26.35;;;;;;;23.17;97.75;101048.59;5074049;28;20048;-86
2021/08/31 08:17:26;;;;;;;25.10;23.65;;;;;;;23.58;85.63;101050.16;5073878;28;20052;-87
2021/08/31 08:19:53;;;;;;;27.10;25.45;;;;;;;23.96;94.14;101040.31;5073970;28;20056;-87
2021/08/31 08:22:20;;;;;;;27.48;25.88;;;;;;;23.71;84.57;101046.81;5073950;28;20048;-86
2021/08/31 08:24:47;;;;;;;28.45;26.70;;;;;;;23.95;75.87;101044.94;5073962;28;20425;-86
2021/08/31 08:27:14;;;;;;;27.67;25.88;;;;;;;23.54;76.20;101044.47;5073617;28;20051;-86
2021/08/31 08:29:41;;;;;;;26.25;24.45;;;;;;;24.10;87.90;101038.53;5073747;28;20052;-87
2021/08/31 08:32:10;;;;;;;27.33;25.77;;;;;;;24.46;100.00;101038.13;5073840;28;20068;-86
2021/08/31 08:34:39;;;;;;;28.20;26.70;;;;;;;24.99;84.78;101043.34;5073747;28;20048;-87
2021/08/31 08:37:06;;;;;;;24.92;23.52;;;;;;;24.66;71.39;101042.47;5073438;28;20049;-86
2021/08/31 08:39:35;;;;;;;25.98;24.48;;;;;;;24.49;70.50;101042.97;5073613;28;20460;-86
2021/08/31 08:42:04;;;;;;;25.25;23.75;;;;;;;24.63;93.59;101037.63;5073032;28;20052;-86
2021/08/31 08:44:31;;;;;;;24.75;23.20;;;;;;;24.02;74.11;101036.44;5073479;28;20056;-89
2021/08/31 08:46:58;;;;;;;25.40;23.88;;;;;;;23.64;63.90;101039.00;5073175;28;20048;-86
2021/08/31 08:49:25;;;;;;;25.33;23.80;;;;;;;24.20;70.57;101035.69;5073166;28;20057;-87
2021/08/31 08:51:56;;;;;;;25.05;23.65;;;;;;;24.55;75.08;101030.97;5073094;28;20076;-88
2021/08/31 08:54:23;;;;;;;25.70;24.10;;;;;;;24.46;66.15;101035.44;5073187;28;20048;-88
2021/08/31 08:56:50;;;;;;;26.65;24.95;;;;;;;24.27;67.54;101029.94;5073218;28;20060;-87
2021/08/31 08:59:17;;;;;;;26.05;24.45;;;;;;;24.40;95.73;101026.50;5073107;28;20052;-87
2021/08/31 09:01:47;;;;;;;29.92;27.83;;;;;;;24.84;67.40;101032.72;5072975;28;20045;-87
2021/08/31 09:04:16;;;;;;;29.42;27.45;;;;;;;24.54;99.74;101025.81;5072533;28;20140;-86
2021/08/31 09:06:43;;;;;;;30.70;28.70;;;;;;;25.10;71.13;101025.00;5072733;28;20418;-86
2021/08/31 09:09:11;;;;;;;27.05;25.35;;;;;;;25.40;67.11;101021.00;5072988;28;20441;-87
2021/08/31 09:11:40;;;;;;;29.08;27.27;;;;;;;25.76;73.69;101028.53;5073093;28;20044;-86
2021/08/31 09:14:19;;;;;;;28.98;26.80;;;;;;;25.44;83.14;101026.66;5072610;28;20498;-88
2021/08/31 09:16:48;;;;;;;31.33;28.60;;;;;;;25.80;66.49;101026.81;5073222;28;20049;-88
2021/08/31 09:19:15;;;;;;;29.55;27.75;;;;;;;25.15;64.57;101024.16;5072504;28;20048;-89
2021/08/31 09:21:44;;;;;;;31.08;29.17;;;;;;;25.97;58.99;101029.78;5073175;28;20450;-87
2021/08/31 09:24:13;;;;;;;28.13;26.27;;;;;;;25.85;69.17;101023.22;5072416;28;20054;-87
2021/08/31 09:26:41;;;;;;;30.20;28.33;;;;;;;25.56;72.48;101022.34;5072550;28;20048;-89
2021/08/31 09:29:17;;;;;;;29.98;28.02;;;;;;;26.58;60.65;101019.56;5072328;28;20401;-88
2021/08/31 09:31:55;;;;;;;30.20;28.48;;;;;;;25.98;65.04;101017.78;5072752;28;20048;-86
2021/08/31 09:34:43;;;;;;;35.42;33.47;;;;;;;26.45;66.09;101010.28;5073032;28;20044;-88
2021/08/31 09:37:32;;;;;;;29.05;27.35;;;;;;;25.67;79.00;101006.66;5072593;28;20071;-86
2021/08/31 09:40:18;;;;;;;28.38;26.58;;;;;;;26.67;48.19;100997.88;5072726;28;20106;-87
2021/08/31 09:42:56;;;;;;;29.52;27.48;;;;;;;25.27;62.71;100989.16;5072265;28;20049;-86
2021/08/31 09:45:26;;;;;;;28.45;26.55;;;;;;;26.21;51.21;100996.91;5072554;28;20432;-86
2021/08/31 09:47:54;;;;;;;27.50;25.70;;;;;;;26.09;55.75;100993.09;5072225;28;20045;-86
2021/08/31 09:50:30;;;;;;;27.70;26.08;;;;;;;26.17;51.71;100986.94;5072240;28;20055;-87
2021/08/31 09:53:12;;;;;;;30.52;28.63;;;;;;;26.09;53.24;100977.56;5072494;28;20464;-86
2021/08/31 09:55:41;;;;;;;;;;;;;;;26.65;50.22;100979.09;5072878;28;20515;-86
2021/08/31 09:58:13;;;;;;;27.10;25.25;;;;;;;26.27;47.47;100978.56;5072490;28;19920;-89
2021/08/31 10:00:41;;;;;;;25.75;23.98;;;;;;;26.39;46.66;100980.75;5072166;28;20059;-89
2021/08/31 10:03:08;;;;;;;28.88;27.15;;;;;;;26.40;46.06;100977.72;5072117;28;20468;-86
2021/08/31 10:05:35;;;;;;;24.98;23.20;;;;;;;26.48;48.01;100976.19;5072300;28;20044;-86
2021/08/31 10:08:03;;;;;;;26.90;25.30;;;;;;;26.30;51.26;100967.06;5072259;28;20072;-86
2021/08/31 10:10:31;;;;;;;25.67;23.88;;;;;;;27.25;44.64;100966.25;5072277;28;20055;-87
2021/08/31 10:13:03;;;;;;;31.27;29.27;;;;;;;28.08;41.64;100964.53;5072563;28;20085;-87
2021/08/31 10:15:35;;;;;;;27.25;25.35;;;;;;;26.97;45.22;100960.91;5073098;28;20044;-87
2021/08/31 10:18:02;;;;;;;27.20;25.50;;;;;;;27.28;39.36;100968.34;5076154;28;20070;-86
2021/08/31 10:20:30;;;;;;;29.50;27.80;;;;;;;27.77;47.24;100969.19;5075975;28;20523;-86
2021/08/31 10:22:58;;;;;;;28.00;26.20;;;;;;;26.70;50.96;100962.63;5075932;28;20048;-89
2021/08/31 10:25:26;;;;;;;26.58;24.77;;;;;;;27.20;46.27;100967.16;5076084;28;20044;-86
2021/08/31 10:27:54;;;;;;;27.23;25.42;;;;;;;26.89;57.76;100954.28;5076354;28;20060;-88
2021/08/31 10:30:37;;;;;;;27.45;25.70;;;;;;;27.40;47.58;100960.38;5075601;28;20048;-90
2021/08/31 10:33:26;;;;;;;29.20;27.10;;;;;;;26.15;66.00;100957.31;5075943;28;20420;-89
2021/08/31 10:35:55;;;;;;;28.85;26.95;;;;;;;27.89;44.75;100955.78;5076049;28;20049;-89
2021/08/31 10:38:55;;;;;;;34.42;32.42;;;;;;;28.34;38.23;100954.75;5075760;28;20045;-89
2021/08/31 10:41:36;;;;;;;31.38;29.52;;;;;;;26.80;59.02;100956.13;5075390;28;20048;-88
2021/08/31 10:44:05;;;;;;;33.92;32.03;;;;;;;27.88;45.91;100950.66;5075406;28;20120;-89
2021/08/31 10:47:06;;;;;;;33.83;31.92;;;;;;;26.79;48.42;100951.81;5075615;28;20048;-88
2021/08/31 10:50:04;;;;;;;38.42;36.00;;;;;;;28.06;50.26;100952.31;5058781;28;20139;-89
2021/08/31 10:52:33;;;;;;;32.65;30.45;;;;;;;29.00;41.88;100948.00;5063505;28;20052;-88
2021/08/31 10:55:00;;;;;;;33.33;31.40;;;;;;;28.57;48.61;100947.25;5075433;28;20059;-89
2021/08/31 10:57:43;;;;;;;27.77;26.08;;;;;;;29.07;42.17;100952.19;5075566;28;20059;-89
2021/08/31 11:00:43;;;;;;;27.70;25.90;;;;;;;28.90;44.03;100947.53;5075443;28;20480;-89
2021/08/31 11:03:10;;;;;;;30.38;28.55;;;;;;;28.01;42.31;100960.63;5074916;28;20505;-87
2021/08/31 11:05:38;;;;;;;29.90;27.77;;;;;;;29.16;37.50;100942.84;5075203;28;20045;-88
2021/08/31 11:08:14;;;;;;;29.90;28.00;;;;;;;27.14;53.71;100950.16;5075347;28;20048;-88
2021/08/31 11:10:43;;;;;;;27.13;25.23;;;;;;;27.84;44.51;100954.03;5075001;28;20067;-89
2021/08/31 11:13:12;;;;;;;30.38;28.27;;;;;;;28.73;40.49;100937.44;5075194;28;20051;-88